sensor_id;sensor_type;location;lat;lon;timestamp;temperature;humidity
70820;DHT22;58439;51.046;13.692;2022-08-19T00:02:08;21.80;69.30
70820;DHT22;58439;51.046;13.692;2022-08-19T00:04:35;21.70;69.30
70820;DHT22;58439;51.046;13.692;2022-08-19T00:07:07;21.70;69.30
70820;DHT22;58439;51.046;13.692;2022-08-19T00:09:34;21.70;69.40
70820;DHT22;58439;51.046;13.692;2022-08-19T00:12:02;21.70;69.50
70820;DHT22;58439;51.046;13.692;2022-08-19T00:14:30;21.70;69.70
70820;DHT22;58439;51.046;13.692;2022-08-19T00:17:01;21.70;69.80
70820;DHT22;58439;51.046;13.692;2022-08-19T00:19:29;21.60;69.80
70820;DHT22;58439;51.046;13.692;2022-08-19T00:21:57;21.60;70.00
70820;DHT22;58439;51.046;13.692;2022-08-19T00:24:25;21.60;70.00
70820;DHT22;58439;51.046;13.692;2022-08-19T00:26:52;21.60;70.40
70820;DHT22;58439;51.046;13.692;2022-08-19T00:29:20;21.50;70.50
70820;DHT22;58439;51.046;13.692;2022-08-19T00:31:48;21.50;70.70
70820;DHT22;58439;51.046;13.692;2022-08-19T00:34:17;21.50;70.90
70820;DHT22;58439;51.046;13.692;2022-08-19T00:36:44;21.50;70.90
70820;DHT22;58439;51.046;13.692;2022-08-19T00:39:13;21.50;71.10
70820;DHT22;58439;51.046;13.692;2022-08-19T00:41:42;21.40;71.20
70820;DHT22;58439;51.046;13.692;2022-08-19T00:44:14;21.50;71.40
70820;DHT22;58439;51.046;13.692;2022-08-19T00:46:48;21.50;71.30
70820;DHT22;58439;51.046;13.692;2022-08-19T00:49:49;21.50;71.30
70820;DHT22;58439;51.046;13.692;2022-08-19T00:52:27;21.40;71.30
70820;DHT22;58439;51.046;13.692;2022-08-19T00:54:59;21.50;71.60
70820;DHT22;58439;51.046;13.692;2022-08-19T00:57:35;21.40;71.80
70820;DHT22;58439;51.046;13.692;2022-08-19T01:00:10;21.40;72.00
70820;DHT22;58439;51.046;13.692;2022-08-19T01:02:41;21.40;72.20
70820;DHT22;58439;51.046;13.692;2022-08-19T01:05:15;21.30;72.30
70820;DHT22;58439;51.046;13.692;2022-08-19T01:07:49;21.40;72.40
70820;DHT22;58439;51.046;13.692;2022-08-19T01:10:21;21.40;72.50
70820;DHT22;58439;51.046;13.692;2022-08-19T01:12:52;21.30;72.50
70820;DHT22;58439;51.046;13.692;2022-08-19T01:15:26;21.30;72.70
70820;DHT22;58439;51.046;13.692;2022-08-19T01:18:00;21.30;72.90
70820;DHT22;58439;51.046;13.692;2022-08-19T01:20:31;21.30;73.00
70820;DHT22;58439;51.046;13.692;2022-08-19T01:23:01;21.30;73.20
70820;DHT22;58439;51.046;13.692;2022-08-19T01:25:45;21.30;73.40
70820;DHT22;58439;51.046;13.692;2022-08-19T01:28:23;21.30;73.40
70820;DHT22;58439;51.046;13.692;2022-08-19T01:31:07;21.30;73.50
70820;DHT22;58439;51.046;13.692;2022-08-19T01:33:38;21.30;73.50
70820;DHT22;58439;51.046;13.692;2022-08-19T01:36:08;21.30;73.60
70820;DHT22;58439;51.046;13.692;2022-08-19T01:38:48;21.30;73.60
70820;DHT22;58439;51.046;13.692;2022-08-19T01:41:17;21.30;73.90
70820;DHT22;58439;51.046;13.692;2022-08-19T01:43:45;21.30;73.90
70820;DHT22;58439;51.046;13.692;2022-08-19T01:46:32;21.30;73.90
70820;DHT22;58439;51.046;13.692;2022-08-19T01:49:01;21.30;73.90
70820;DHT22;58439;51.046;13.692;2022-08-19T01:51:29;21.30;74.10
70820;DHT22;58439;51.046;13.692;2022-08-19T01:54:08;21.30;74.20
70820;DHT22;58439;51.046;13.692;2022-08-19T01:56:35;21.30;74.30
70820;DHT22;58439;51.046;13.692;2022-08-19T01:59:06;21.30;74.40
70820;DHT22;58439;51.046;13.692;2022-08-19T02:01:36;21.30;74.50
70820;DHT22;58439;51.046;13.692;2022-08-19T02:04:04;21.30;74.60
70820;DHT22;58439;51.046;13.692;2022-08-19T02:06:33;21.30;74.40
70820;DHT22;58439;51.046;13.692;2022-08-19T02:09:00;21.30;74.50
70820;DHT22;58439;51.046;13.692;2022-08-19T02:11:31;21.30;74.70
70820;DHT22;58439;51.046;13.692;2022-08-19T02:14:02;21.30;74.90
70820;DHT22;58439;51.046;13.692;2022-08-19T02:16:32;21.30;74.80
70820;DHT22;58439;51.046;13.692;2022-08-19T02:19:00;21.30;74.80
70820;DHT22;58439;51.046;13.692;2022-08-19T02:21:28;21.30;74.90
70820;DHT22;58439;51.046;13.692;2022-08-19T02:23:56;21.30;74.90
70820;DHT22;58439;51.046;13.692;2022-08-19T02:26:24;21.30;75.10
70820;DHT22;58439;51.046;13.692;2022-08-19T02:28:54;21.30;75.20
70820;DHT22;58439;51.046;13.692;2022-08-19T02:31:24;21.30;75.40
70820;DHT22;58439;51.046;13.692;2022-08-19T02:33:52;21.20;75.40
70820;DHT22;58439;51.046;13.692;2022-08-19T02:36:23;21.20;75.50
70820;DHT22;58439;51.046;13.692;2022-08-19T02:38:52;21.20;75.50
70820;DHT22;58439;51.046;13.692;2022-08-19T02:41:26;21.20;75.50
70820;DHT22;58439;51.046;13.692;2022-08-19T02:43:57;21.20;75.60
70820;DHT22;58439;51.046;13.692;2022-08-19T02:46:48;21.20;75.70
70820;DHT22;58439;51.046;13.692;2022-08-19T02:49:18;21.30;75.80
70820;DHT22;58439;51.046;13.692;2022-08-19T02:51:47;21.30;75.70
70820;DHT22;58439;51.046;13.692;2022-08-19T02:54:15;21.20;75.70
70820;DHT22;58439;51.046;13.692;2022-08-19T02:56:44;21.30;75.70
70820;DHT22;58439;51.046;13.692;2022-08-19T02:59:12;21.30;75.80
70820;DHT22;58439;51.046;13.692;2022-08-19T03:01:41;21.30;75.80
70820;DHT22;58439;51.046;13.692;2022-08-19T03:04:11;21.30;75.70
70820;DHT22;58439;51.046;13.692;2022-08-19T03:06:42;21.30;75.80
70820;DHT22;58439;51.046;13.692;2022-08-19T03:09:12;21.30;75.80
70820;DHT22;58439;51.046;13.692;2022-08-19T03:11:40;21.30;75.80
70820;DHT22;58439;51.046;13.692;2022-08-19T03:14:11;21.20;75.90
70820;DHT22;58439;51.046;13.692;2022-08-19T03:16:44;21.20;76.00
70820;DHT22;58439;51.046;13.692;2022-08-19T03:19:15;21.20;76.00
70820;DHT22;58439;51.046;13.692;2022-08-19T03:21:44;21.20;76.00
70820;DHT22;58439;51.046;13.692;2022-08-19T03:24:12;21.20;76.00
70820;DHT22;58439;51.046;13.692;2022-08-19T03:26:42;21.20;76.00
70820;DHT22;58439;51.046;13.692;2022-08-19T03:29:11;21.20;76.20
70820;DHT22;58439;51.046;13.692;2022-08-19T03:31:41;21.20;76.40
70820;DHT22;58439;51.046;13.692;2022-08-19T03:34:24;21.20;76.30
70820;DHT22;58439;51.046;13.692;2022-08-19T03:36:55;21.20;76.40
70820;DHT22;58439;51.046;13.692;2022-08-19T03:39:25;21.20;76.30
70820;DHT22;58439;51.046;13.692;2022-08-19T03:41:53;21.20;76.30
70820;DHT22;58439;51.046;13.692;2022-08-19T03:44:44;21.20;76.30
70820;DHT22;58439;51.046;13.692;2022-08-19T03:47:12;21.20;76.00
70820;DHT22;58439;51.046;13.692;2022-08-19T03:49:44;21.20;76.10
70820;DHT22;58439;51.046;13.692;2022-08-19T03:52:11;21.20;76.10
70820;DHT22;58439;51.046;13.692;2022-08-19T03:54:38;21.20;76.10
70820;DHT22;58439;51.046;13.692;2022-08-19T03:57:06;21.20;76.10
70820;DHT22;58439;51.046;13.692;2022-08-19T03:59:36;21.20;76.10
70820;DHT22;58439;51.046;13.692;2022-08-19T04:02:11;21.20;76.00
70820;DHT22;58439;51.046;13.692;2022-08-19T04:04:41;21.20;75.90
70820;DHT22;58439;51.046;13.692;2022-08-19T04:07:12;21.20;75.80
70820;DHT22;58439;51.046;13.692;2022-08-19T04:09:42;21.20;75.80
70820;DHT22;58439;51.046;13.692;2022-08-19T04:12:10;21.20;75.80
70820;DHT22;58439;51.046;13.692;2022-08-19T04:14:37;21.20;75.70
70820;DHT22;58439;51.046;13.692;2022-08-19T04:17:06;21.20;75.80
70820;DHT22;58439;51.046;13.692;2022-08-19T04:19:35;21.30;75.70
70820;DHT22;58439;51.046;13.692;2022-08-19T04:22:03;21.20;75.60
70820;DHT22;58439;51.046;13.692;2022-08-19T04:24:31;21.20;75.50
70820;DHT22;58439;51.046;13.692;2022-08-19T04:27:02;21.20;75.40
70820;DHT22;58439;51.046;13.692;2022-08-19T04:29:30;21.20;75.60
70820;DHT22;58439;51.046;13.692;2022-08-19T04:31:59;21.20;75.50
70820;DHT22;58439;51.046;13.692;2022-08-19T04:34:37;21.30;75.50
70820;DHT22;58439;51.046;13.692;2022-08-19T04:37:25;21.30;75.50
70820;DHT22;58439;51.046;13.692;2022-08-19T04:40:27;21.30;75.50
70820;DHT22;58439;51.046;13.692;2022-08-19T04:43:18;21.30;75.40
70820;DHT22;58439;51.046;13.692;2022-08-19T04:45:46;21.30;75.30
70820;DHT22;58439;51.046;13.692;2022-08-19T04:48:14;21.30;75.30
70820;DHT22;58439;51.046;13.692;2022-08-19T04:50:57;21.30;75.40
70820;DHT22;58439;51.046;13.692;2022-08-19T04:53:30;21.30;75.30
70820;DHT22;58439;51.046;13.692;2022-08-19T04:56:08;21.30;75.30
70820;DHT22;58439;51.046;13.692;2022-08-19T04:59:05;21.30;75.30
70820;DHT22;58439;51.046;13.692;2022-08-19T05:01:33;21.30;75.20
70820;DHT22;58439;51.046;13.692;2022-08-19T05:04:01;21.20;75.20
70820;DHT22;58439;51.046;13.692;2022-08-19T05:06:31;21.20;75.30
70820;DHT22;58439;51.046;13.692;2022-08-19T05:09:04;21.20;75.30
70820;DHT22;58439;51.046;13.692;2022-08-19T05:11:34;21.20;75.30
70820;DHT22;58439;51.046;13.692;2022-08-19T05:14:07;21.20;75.30
70820;DHT22;58439;51.046;13.692;2022-08-19T05:16:34;21.20;75.30
70820;DHT22;58439;51.046;13.692;2022-08-19T05:19:02;21.20;75.50
70820;DHT22;58439;51.046;13.692;2022-08-19T05:21:48;21.20;75.30
70820;DHT22;58439;51.046;13.692;2022-08-19T05:24:34;21.20;75.30
70820;DHT22;58439;51.046;13.692;2022-08-19T05:27:01;21.10;75.30
70820;DHT22;58439;51.046;13.692;2022-08-19T05:29:32;21.20;75.60
70820;DHT22;58439;51.046;13.692;2022-08-19T05:32:04;21.20;75.50
70820;DHT22;58439;51.046;13.692;2022-08-19T05:34:35;21.20;75.40
70820;DHT22;58439;51.046;13.692;2022-08-19T05:37:05;21.20;75.40
70820;DHT22;58439;51.046;13.692;2022-08-19T05:39:36;21.20;75.50
70820;DHT22;58439;51.046;13.692;2022-08-19T05:42:07;21.10;75.40
70820;DHT22;58439;51.046;13.692;2022-08-19T05:44:39;21.10;75.30
70820;DHT22;58439;51.046;13.692;2022-08-19T05:47:13;21.10;75.40
70820;DHT22;58439;51.046;13.692;2022-08-19T05:49:42;21.10;75.60
70820;DHT22;58439;51.046;13.692;2022-08-19T05:52:12;21.10;75.70
70820;DHT22;58439;51.046;13.692;2022-08-19T05:54:46;21.10;75.60
70820;DHT22;58439;51.046;13.692;2022-08-19T05:57:20;21.00;75.50
70820;DHT22;58439;51.046;13.692;2022-08-19T05:59:47;21.00;75.50
70820;DHT22;58439;51.046;13.692;2022-08-19T06:02:25;21.00;75.50
70820;DHT22;58439;51.046;13.692;2022-08-19T06:04:53;21.10;75.30
70820;DHT22;58439;51.046;13.692;2022-08-19T06:07:20;21.10;75.20
70820;DHT22;58439;51.046;13.692;2022-08-19T06:09:48;21.10;75.10
70820;DHT22;58439;51.046;13.692;2022-08-19T06:12:31;21.10;74.80
70820;DHT22;58439;51.046;13.692;2022-08-19T06:15:05;21.10;74.40
70820;DHT22;58439;51.046;13.692;2022-08-19T06:17:36;21.10;74.20
70820;DHT22;58439;51.046;13.692;2022-08-19T06:20:05;21.20;74.10
70820;DHT22;58439;51.046;13.692;2022-08-19T06:22:40;21.20;74.10
70820;DHT22;58439;51.046;13.692;2022-08-19T06:25:09;21.10;74.10
70820;DHT22;58439;51.046;13.692;2022-08-19T06:27:37;21.20;74.00
70820;DHT22;58439;51.046;13.692;2022-08-19T06:30:19;21.20;74.00
70820;DHT22;58439;51.046;13.692;2022-08-19T06:32:46;21.20;73.80
70820;DHT22;58439;51.046;13.692;2022-08-19T06:35:14;21.30;73.90
70820;DHT22;58439;51.046;13.692;2022-08-19T06:37:46;21.30;73.90
70820;DHT22;58439;51.046;13.692;2022-08-19T06:40:20;21.20;73.80
70820;DHT22;58439;51.046;13.692;2022-08-19T06:43:15;21.30;73.70
70820;DHT22;58439;51.046;13.692;2022-08-19T06:45:44;21.30;73.50
70820;DHT22;58439;51.046;13.692;2022-08-19T06:48:13;21.30;73.50
70820;DHT22;58439;51.046;13.692;2022-08-19T06:50:44;21.30;73.40
70820;DHT22;58439;51.046;13.692;2022-08-19T06:53:11;21.30;73.30
70820;DHT22;58439;51.046;13.692;2022-08-19T06:55:44;21.30;73.30
70820;DHT22;58439;51.046;13.692;2022-08-19T06:58:21;21.30;73.30
70820;DHT22;58439;51.046;13.692;2022-08-19T07:00:54;21.30;73.60
70820;DHT22;58439;51.046;13.692;2022-08-19T07:03:41;21.30;73.60
70820;DHT22;58439;51.046;13.692;2022-08-19T07:06:36;21.30;73.90
70820;DHT22;58439;51.046;13.692;2022-08-19T07:09:57;21.30;74.30
70820;DHT22;58439;51.046;13.692;2022-08-19T07:12:49;21.20;74.60
70820;DHT22;58439;51.046;13.692;2022-08-19T07:15:27;21.20;75.10
70820;DHT22;58439;51.046;13.692;2022-08-19T07:17:59;21.10;75.30
70820;DHT22;58439;51.046;13.692;2022-08-19T07:20:32;21.10;75.90
70820;DHT22;58439;51.046;13.692;2022-08-19T07:23:20;21.00;76.40
70820;DHT22;58439;51.046;13.692;2022-08-19T07:25:56;21.00;77.00
70820;DHT22;58439;51.046;13.692;2022-08-19T07:29:01;20.90;76.90
70820;DHT22;58439;51.046;13.692;2022-08-19T07:31:38;20.90;77.60
70820;DHT22;58439;51.046;13.692;2022-08-19T07:34:28;20.90;77.90
70820;DHT22;58439;51.046;13.692;2022-08-19T07:37:31;20.80;78.20
70820;DHT22;58439;51.046;13.692;2022-08-19T07:40:21;20.80;78.50
70820;DHT22;58439;51.046;13.692;2022-08-19T07:43:04;20.80;78.90
70820;DHT22;58439;51.046;13.692;2022-08-19T07:45:32;20.80;79.50
70820;DHT22;58439;51.046;13.692;2022-08-19T07:48:29;20.80;79.60
70820;DHT22;58439;51.046;13.692;2022-08-19T07:51:00;20.80;80.00
70820;DHT22;58439;51.046;13.692;2022-08-19T07:53:31;20.80;80.10
70820;DHT22;58439;51.046;13.692;2022-08-19T07:56:05;20.80;80.10
70820;DHT22;58439;51.046;13.692;2022-08-19T07:58:39;20.80;80.30
70820;DHT22;58439;51.046;13.692;2022-08-19T08:01:26;20.80;80.60
70820;DHT22;58439;51.046;13.692;2022-08-19T08:03:56;20.80;81.00
70820;DHT22;58439;51.046;13.692;2022-08-19T08:06:53;20.80;80.90
70820;DHT22;58439;51.046;13.692;2022-08-19T08:09:56;20.90;80.60
70820;DHT22;58439;51.046;13.692;2022-08-19T08:12:34;20.90;80.20
70820;DHT22;58439;51.046;13.692;2022-08-19T08:15:33;21.00;80.20
70820;DHT22;58439;51.046;13.692;2022-08-19T08:18:23;21.00;80.10
70820;DHT22;58439;51.046;13.692;2022-08-19T08:21:13;21.00;79.60
70820;DHT22;58439;51.046;13.692;2022-08-19T08:23:58;21.00;80.00
70820;DHT22;58439;51.046;13.692;2022-08-19T08:26:30;21.00;79.90
70820;DHT22;58439;51.046;13.692;2022-08-19T08:29:00;20.90;80.30
70820;DHT22;58439;51.046;13.692;2022-08-19T08:31:43;21.00;80.90
70820;DHT22;58439;51.046;13.692;2022-08-19T08:34:32;21.10;80.90
70820;DHT22;58439;51.046;13.692;2022-08-19T08:37:29;21.10;80.80
70820;DHT22;58439;51.046;13.692;2022-08-19T08:39:57;21.10;80.80
70820;DHT22;58439;51.046;13.692;2022-08-19T08:42:52;21.20;80.60
70820;DHT22;58439;51.046;13.692;2022-08-19T08:46:06;21.10;81.00
70820;DHT22;58439;51.046;13.692;2022-08-19T08:48:59;21.10;80.90
70820;DHT22;58439;51.046;13.692;2022-08-19T08:51:39;21.10;81.70
70820;DHT22;58439;51.046;13.692;2022-08-19T08:54:48;21.20;81.80
70820;DHT22;58439;51.046;13.692;2022-08-19T08:57:54;21.30;81.40
70820;DHT22;58439;51.046;13.692;2022-08-19T09:01:02;21.60;81.10
70820;DHT22;58439;51.046;13.692;2022-08-19T09:04:09;21.80;78.40
70820;DHT22;58439;51.046;13.692;2022-08-19T09:13:29;22.30;75.50
70820;DHT22;58439;51.046;13.692;2022-08-19T09:16:07;22.50;75.00
70820;DHT22;58439;51.046;13.692;2022-08-19T09:18:46;22.60;74.30
70820;DHT22;58439;51.046;13.692;2022-08-19T09:21:21;22.70;73.40
70820;DHT22;58439;51.046;13.692;2022-08-19T09:23:59;22.80;73.30
70820;DHT22;58439;51.046;13.692;2022-08-19T09:26:30;22.90;72.80
70820;DHT22;58439;51.046;13.692;2022-08-19T09:29:23;23.00;72.10
70820;DHT22;58439;51.046;13.692;2022-08-19T09:31:51;23.10;71.20
70820;DHT22;58439;51.046;13.692;2022-08-19T09:34:19;23.30;70.50
70820;DHT22;58439;51.046;13.692;2022-08-19T09:36:49;23.50;69.60
70820;DHT22;58439;51.046;13.692;2022-08-19T09:39:20;23.50;68.80
70820;DHT22;58439;51.046;13.692;2022-08-19T09:41:48;23.30;68.80
70820;DHT22;58439;51.046;13.692;2022-08-19T09:44:17;23.20;69.50
70820;DHT22;58439;51.046;13.692;2022-08-19T09:46:47;23.10;69.60
70820;DHT22;58439;51.046;13.692;2022-08-19T09:49:16;23.20;70.00
70820;DHT22;58439;51.046;13.692;2022-08-19T09:51:50;23.40;69.40
70820;DHT22;58439;51.046;13.692;2022-08-19T09:54:21;23.60;68.70
70820;DHT22;58439;51.046;13.692;2022-08-19T09:57:16;23.70;67.80
70820;DHT22;58439;51.046;13.692;2022-08-19T10:00:06;23.60;67.30
70820;DHT22;58439;51.046;13.692;2022-08-19T10:02:35;23.50;67.90
70820;DHT22;58439;51.046;13.692;2022-08-19T10:05:03;23.60;68.10
70820;DHT22;58439;51.046;13.692;2022-08-19T10:07:52;23.70;67.50
70820;DHT22;58439;51.046;13.692;2022-08-19T10:10:22;23.70;66.90
70820;DHT22;58439;51.046;13.692;2022-08-19T10:12:53;23.60;66.80
70820;DHT22;58439;51.046;13.692;2022-08-19T10:15:21;23.50;67.20
70820;DHT22;58439;51.046;13.692;2022-08-19T10:17:55;23.70;67.00
70820;DHT22;58439;51.046;13.692;2022-08-19T10:20:24;23.90;66.50
70820;DHT22;58439;51.046;13.692;2022-08-19T10:22:51;24.10;65.80
70820;DHT22;58439;51.046;13.692;2022-08-19T10:25:19;24.30;65.10
70820;DHT22;58439;51.046;13.692;2022-08-19T10:27:49;24.60;64.50
70820;DHT22;58439;51.046;13.692;2022-08-19T10:30:17;24.80;63.80
70820;DHT22;58439;51.046;13.692;2022-08-19T10:32:46;25.20;63.50
70820;DHT22;58439;51.046;13.692;2022-08-19T10:35:13;25.60;62.10
70820;DHT22;58439;51.046;13.692;2022-08-19T10:37:57;25.60;60.50
70820;DHT22;58439;51.046;13.692;2022-08-19T10:40:30;25.30;61.00
70820;DHT22;58439;51.046;13.692;2022-08-19T10:42:57;24.90;62.10
70820;DHT22;58439;51.046;13.692;2022-08-19T10:45:24;24.60;63.00
70820;DHT22;58439;51.046;13.692;2022-08-19T10:47:54;24.60;63.60
70820;DHT22;58439;51.046;13.692;2022-08-19T10:50:25;24.90;63.50
70820;DHT22;58439;51.046;13.692;2022-08-19T10:53:51;25.40;62.50
70820;DHT22;58439;51.046;13.692;2022-08-19T10:56:41;26.10;60.40
70820;DHT22;58439;51.046;13.692;2022-08-19T11:01:54;26.20;58.40
70820;DHT22;58439;51.046;13.692;2022-08-19T11:04:25;26.00;58.20
70820;DHT22;58439;51.046;13.692;2022-08-19T11:06:55;25.80;58.90
70820;DHT22;58439;51.046;13.692;2022-08-19T11:09:24;25.40;59.90
70820;DHT22;58439;51.046;13.692;2022-08-19T11:12:00;25.20;60.40
70820;DHT22;58439;51.046;13.692;2022-08-19T11:14:31;24.90;60.60
70820;DHT22;58439;51.046;13.692;2022-08-19T11:17:01;24.70;61.20
70820;DHT22;58439;51.046;13.692;2022-08-19T11:19:30;24.50;61.60
70820;DHT22;58439;51.046;13.692;2022-08-19T11:21:57;24.40;62.20
70820;DHT22;58439;51.046;13.692;2022-08-19T11:24:30;24.30;62.50
70820;DHT22;58439;51.046;13.692;2022-08-19T11:27:05;24.20;62.80
70820;DHT22;58439;51.046;13.692;2022-08-19T11:29:38;24.10;63.00
70820;DHT22;58439;51.046;13.692;2022-08-19T11:32:08;24.10;63.20
70820;DHT22;58439;51.046;13.692;2022-08-19T11:34:37;24.00;63.60
70820;DHT22;58439;51.046;13.692;2022-08-19T11:37:29;24.10;63.70
70820;DHT22;58439;51.046;13.692;2022-08-19T11:40:15;24.20;64.50
70820;DHT22;58439;51.046;13.692;2022-08-19T11:42:56;24.30;63.10
70820;DHT22;58439;51.046;13.692;2022-08-19T11:48:43;24.50;63.00
70820;DHT22;58439;51.046;13.692;2022-08-19T11:51:41;24.90;62.20
70820;DHT22;58439;51.046;13.692;2022-08-19T11:54:14;24.90;61.70
70820;DHT22;58439;51.046;13.692;2022-08-19T11:56:43;24.60;61.80
70820;DHT22;58439;51.046;13.692;2022-08-19T11:59:13;24.30;62.70
70820;DHT22;58439;51.046;13.692;2022-08-19T12:01:40;24.00;63.50
70820;DHT22;58439;51.046;13.692;2022-08-19T12:04:10;23.80;64.10
70820;DHT22;58439;51.046;13.692;2022-08-19T12:06:39;23.80;64.40
70820;DHT22;58439;51.046;13.692;2022-08-19T12:09:08;23.70;64.50
70820;DHT22;58439;51.046;13.692;2022-08-19T12:11:38;23.60;64.50
70820;DHT22;58439;51.046;13.692;2022-08-19T12:14:08;23.60;64.50
70820;DHT22;58439;51.046;13.692;2022-08-19T12:16:44;23.50;64.50
70820;DHT22;58439;51.046;13.692;2022-08-19T12:19:18;23.40;64.40
70820;DHT22;58439;51.046;13.692;2022-08-19T12:21:58;23.30;64.80
70820;DHT22;58439;51.046;13.692;2022-08-19T12:24:32;23.30;65.30
70820;DHT22;58439;51.046;13.692;2022-08-19T12:27:18;23.40;65.40
70820;DHT22;58439;51.046;13.692;2022-08-19T12:30:15;23.60;65.20
70820;DHT22;58439;51.046;13.692;2022-08-19T12:33:03;23.60;65.00
70820;DHT22;58439;51.046;13.692;2022-08-19T12:36:06;23.50;65.00
70820;DHT22;58439;51.046;13.692;2022-08-19T12:38:49;23.40;65.30
70820;DHT22;58439;51.046;13.692;2022-08-19T12:41:17;23.40;65.40
70820;DHT22;58439;51.046;13.692;2022-08-19T12:43:45;23.50;65.00
70820;DHT22;58439;51.046;13.692;2022-08-19T12:46:28;23.60;64.80
70820;DHT22;58439;51.046;13.692;2022-08-19T12:49:20;23.60;64.50
70820;DHT22;58439;51.046;13.692;2022-08-19T12:52:08;23.70;64.40
70820;DHT22;58439;51.046;13.692;2022-08-19T12:54:43;23.60;64.00
70820;DHT22;58439;51.046;13.692;2022-08-19T12:57:20;23.60;64.40
70820;DHT22;58439;51.046;13.692;2022-08-19T13:00:10;23.40;64.80
70820;DHT22;58439;51.046;13.692;2022-08-19T13:02:45;23.30;65.20
70820;DHT22;58439;51.046;13.692;2022-08-19T13:05:22;23.20;65.50
70820;DHT22;58439;51.046;13.692;2022-08-19T13:09:00;23.30;65.50
70820;DHT22;58439;51.046;13.692;2022-08-19T13:11:43;23.40;65.20
70820;DHT22;58439;51.046;13.692;2022-08-19T13:14:42;23.40;65.00
70820;DHT22;58439;51.046;13.692;2022-08-19T13:18:08;23.50;65.10
70820;DHT22;58439;51.046;13.692;2022-08-19T13:20:38;23.40;64.90
70820;DHT22;58439;51.046;13.692;2022-08-19T13:23:10;23.40;65.20
70820;DHT22;58439;51.046;13.692;2022-08-19T13:25:59;23.30;65.30
70820;DHT22;58439;51.046;13.692;2022-08-19T13:28:56;23.30;65.40
70820;DHT22;58439;51.046;13.692;2022-08-19T13:31:59;23.20;65.20
70820;DHT22;58439;51.046;13.692;2022-08-19T13:35:04;23.10;65.60
70820;DHT22;58439;51.046;13.692;2022-08-19T13:37:41;23.20;65.70
70820;DHT22;58439;51.046;13.692;2022-08-19T13:40:23;23.00;65.80
70820;DHT22;58439;51.046;13.692;2022-08-19T13:43:06;22.90;66.50
70820;DHT22;58439;51.046;13.692;2022-08-19T13:46:22;22.70;67.20
70820;DHT22;58439;51.046;13.692;2022-08-19T13:49:35;22.60;67.90
70820;DHT22;58439;51.046;13.692;2022-08-19T13:52:27;22.40;68.50
70820;DHT22;58439;51.046;13.692;2022-08-19T13:55:26;22.40;68.70
70820;DHT22;58439;51.046;13.692;2022-08-19T13:58:08;22.40;68.70
70820;DHT22;58439;51.046;13.692;2022-08-19T14:01:07;22.40;68.50
70820;DHT22;58439;51.046;13.692;2022-08-19T14:04:10;22.50;68.40
70820;DHT22;58439;51.046;13.692;2022-08-19T14:06:47;22.50;68.40
70820;DHT22;58439;51.046;13.692;2022-08-19T14:10:02;22.60;68.20
70820;DHT22;58439;51.046;13.692;2022-08-19T14:12:40;22.70;68.10
70820;DHT22;58439;51.046;13.692;2022-08-19T14:15:25;22.80;67.90
70820;DHT22;58439;51.046;13.692;2022-08-19T14:19:25;22.80;67.60
70820;DHT22;58439;51.046;13.692;2022-08-19T14:22:23;22.70;67.50
70820;DHT22;58439;51.046;13.692;2022-08-19T14:25:36;22.50;67.70
70820;DHT22;58439;51.046;13.692;2022-08-19T14:28:15;22.50;68.10
70820;DHT22;58439;51.046;13.692;2022-08-19T14:30:47;22.40;68.00
70820;DHT22;58439;51.046;13.692;2022-08-19T14:33:31;22.50;68.00
70820;DHT22;58439;51.046;13.692;2022-08-19T14:36:10;22.40;68.10
70820;DHT22;58439;51.046;13.692;2022-08-19T14:38:49;22.40;68.40
70820;DHT22;58439;51.046;13.692;2022-08-19T14:41:22;22.40;68.50
70820;DHT22;58439;51.046;13.692;2022-08-19T14:43:58;22.40;68.60
70820;DHT22;58439;51.046;13.692;2022-08-19T14:46:40;22.40;68.60
70820;DHT22;58439;51.046;13.692;2022-08-19T14:49:20;22.40;68.60
70820;DHT22;58439;51.046;13.692;2022-08-19T14:52:06;22.40;68.60
70820;DHT22;58439;51.046;13.692;2022-08-19T14:54:42;22.40;68.80
70820;DHT22;58439;51.046;13.692;2022-08-19T14:57:26;22.40;68.80
70820;DHT22;58439;51.046;13.692;2022-08-19T15:00:20;22.40;68.50
70820;DHT22;58439;51.046;13.692;2022-08-19T15:03:35;22.40;68.40
70820;DHT22;58439;51.046;13.692;2022-08-19T15:06:23;22.40;68.50
70820;DHT22;58439;51.046;13.692;2022-08-19T15:08:58;22.50;68.50
70820;DHT22;58439;51.046;13.692;2022-08-19T15:11:33;22.50;68.30
70820;DHT22;58439;51.046;13.692;2022-08-19T15:14:23;22.60;68.00
70820;DHT22;58439;51.046;13.692;2022-08-19T15:17:02;22.60;67.90
70820;DHT22;58439;51.046;13.692;2022-08-19T15:19:41;22.60;67.80
70820;DHT22;58439;51.046;13.692;2022-08-19T15:22:23;22.60;67.80
70820;DHT22;58439;51.046;13.692;2022-08-19T15:25:29;22.60;67.70
70820;DHT22;58439;51.046;13.692;2022-08-19T15:28:11;22.50;67.90
70820;DHT22;58439;51.046;13.692;2022-08-19T15:30:57;22.50;67.80
70820;DHT22;58439;51.046;13.692;2022-08-19T15:33:35;22.50;67.70
70820;DHT22;58439;51.046;13.692;2022-08-19T15:36:18;22.50;67.70
70820;DHT22;58439;51.046;13.692;2022-08-19T15:39:24;22.50;67.60
70820;DHT22;58439;51.046;13.692;2022-08-19T15:42:22;22.50;67.60
70820;DHT22;58439;51.046;13.692;2022-08-19T15:45:21;22.50;67.50
70820;DHT22;58439;51.046;13.692;2022-08-19T15:48:14;22.40;67.40
70820;DHT22;58439;51.046;13.692;2022-08-19T15:50:57;22.40;67.60
70820;DHT22;58439;51.046;13.692;2022-08-19T15:53:41;22.40;67.50
70820;DHT22;58439;51.046;13.692;2022-08-19T15:56:14;22.50;67.40
70820;DHT22;58439;51.046;13.692;2022-08-19T15:58:48;22.50;67.30
70820;DHT22;58439;51.046;13.692;2022-08-19T16:01:41;22.60;67.00
70820;DHT22;58439;51.046;13.692;2022-08-19T16:04:42;22.60;66.90
70820;DHT22;58439;51.046;13.692;2022-08-19T16:07:31;22.70;66.70
70820;DHT22;58439;51.046;13.692;2022-08-19T16:10:11;22.70;66.40
70820;DHT22;58439;51.046;13.692;2022-08-19T16:12:59;22.70;66.40
70820;DHT22;58439;51.046;13.692;2022-08-19T16:15:47;22.70;66.30
70820;DHT22;58439;51.046;13.692;2022-08-19T16:18:34;22.70;66.40
70820;DHT22;58439;51.046;13.692;2022-08-19T16:21:16;22.60;66.40
70820;DHT22;58439;51.046;13.692;2022-08-19T16:24:04;22.60;66.70
70820;DHT22;58439;51.046;13.692;2022-08-19T16:26:47;22.60;66.60
70820;DHT22;58439;51.046;13.692;2022-08-19T16:29:31;22.60;66.50
70820;DHT22;58439;51.046;13.692;2022-08-19T16:32:14;22.50;66.50
70820;DHT22;58439;51.046;13.692;2022-08-19T16:35:07;22.50;66.70
70820;DHT22;58439;51.046;13.692;2022-08-19T16:37:59;22.40;66.80